Stations météo

réclame
Mon MeteoGroup
Sumburgh, Grande-Bretagne (3003): Température de l'air & dewpoint: 11.10.2017 19:00:00 - 17.10.2017 19:00:00 (BST)Sumburgh, Grande-Bretagne (3003): Vitesse du vent: 11.10.2017 19:00:00 - 17.10.2017 19:00:00 (BST)Sumburgh, Grande-Bretagne (3003): Direction du vent: 11.10.2017 19:00:00 - 17.10.2017 19:00:00 (BST)Sumburgh, Grande-Bretagne (3003): visibility: 11.10.2017 19:00:00 - 17.10.2017 19:00:00 (BST)
Date & Time tt [°C] td [°C] ff [km/h] ff [knt] dd vv [km]
17.10.2017 19:00:00 8,0 5,0 26 14 N 10
17.10.2017 18:00:00 8,0 4,0 28 15 N 10
17.10.2017 17:00:00 9,0 5,0 28 15 N 10
17.10.2017 16:00:00 9,0 6,0 41 22 N 10
17.10.2017 15:00:00 9,0 7,0 41 22 N 10
17.10.2017 14:00:00 10,0 8,0 44 24 NNE 10
17.10.2017 13:00:00 10,0 7,0 55 30 NNE 10
17.10.2017 12:00:00 10,0 8,0 57 31 NNE 9
17.10.2017 11:00:00 10,0 8,0 65 35 NE 7
17.10.2017 10:00:00 10,0 8,0 67 36 NE 6
17.10.2017 09:00:00 10,0 9,0 65 35 NE 7
17.10.2017 08:00:00 10,0 9,0 63 34 NE 5
17.10.2017 07:00:00 10,0 10,0 55 30 NE 2,8
17.10.2017 06:00:00 11,0 11,0 24 13 E 3,2
17.10.2017 05:00:00 11,0 11,0 21 11 E 2,7
17.10.2017 04:00:00 12,0 11,0 22 12 E 2,6
17.10.2017 03:00:00 11,0 10,0 44 24 ENE 2,0
17.10.2017 02:00:00 10,0 9,0 54 29 ENE 10
17.10.2017 01:00:00 10,0 9,0 57 31 ENE 4,7
17.10.2017 00:00:00 10,0 9,0 57 31 ENE 6
16.10.2017 23:00:00 9,0 8,0 57 31 E 4,1
16.10.2017 22:00:00 9,0 8,0 54 29 E 5
16.10.2017 21:00:00 9,0 8,0 50 27 E 5
16.10.2017 20:00:00 10,0 7,0 42 23 E 10
16.10.2017 19:00:00 10,0 8,0 34 18 E 10
16.10.2017 18:00:00 10,0 8,0 28 15 E 10
16.10.2017 17:00:00 11,0 9,0 22 12 E 10
16.10.2017 16:00:00 11,0 9,0 16 9 E 10
16.10.2017 15:00:00 11,0 8,0 8 4 ESE 10
16.10.2017 14:00:00 12,0 8,0 5 3 SSE 10
16.10.2017 13:00:00 11,0 9,0 4 2 S 10
16.10.2017 12:00:00 11,0 9,0 9 5 SSW 10
16.10.2017 11:00:00 11,0 8,0 11 6 SW 10
16.10.2017 10:00:00 11,0 8,0 5 3 S 10
16.10.2017 09:00:00 11,0 8,0 9 5 SSW 10
16.10.2017 08:00:00 10,0 7,0 11 6 SSW 10
16.10.2017 07:00:00 10,0 7,0 8 4 SSW 10
16.10.2017 06:00:00 10,0 7,0 8 4 WSW 10
16.10.2017 05:00:00 10,0 7,0 9 5 W 10
16.10.2017 04:00:00 10,0 7,0 13 7 W 10
16.10.2017 03:00:00 9,0 7,0 5 3 W 10
16.10.2017 02:00:00 10,0 7,0 13 7 W 10
16.10.2017 01:00:00 10,0 7,0 16 9 W 10
16.10.2017 00:00:00 10,0 6,0 24 13 W 10
15.10.2017 23:00:00 10,0 6,0 28 15 W 10
15.10.2017 22:00:00 10,0 7,0 29 16 WNW 10
15.10.2017 21:00:00 10,0 7,0 41 22 WNW 10
15.10.2017 20:00:00 10,0 7,0 39 21 W 9
15.10.2017 19:00:00 10,0 8,0 52 28 W 10
15.10.2017 18:00:00 11,0 10,0 65 35 WSW 10
15.10.2017 17:00:00 13,0 11,0 57 31 SW 9
15.10.2017 16:00:00 14,0 12,0 41 22 S 10
15.10.2017 15:00:00 14,0 12,0 37 20 S 10
15.10.2017 14:00:00 14,0 12,0 34 18 S 10
15.10.2017 13:00:00 14,0 12,0 34 18 SSW 10
15.10.2017 12:00:00 13,0 12,0 24 13 S 10
15.10.2017 11:00:00 13,0 12,0 28 15 SSW 7
15.10.2017 10:00:00 13,0 12,0 28 15 S 9
15.10.2017 09:00:00 13,0 12,0 29 16 S 5
15.10.2017 08:00:00 12,0 12,0 24 13 S 6
15.10.2017 07:00:00 12,0 12,0 18 10 SSE 6
15.10.2017 06:00:00 11,0 10,0 26 14 E 2,9
15.10.2017 05:00:00 9,0 8,0 21 11 E 10
15.10.2017 04:00:00 9,0 8,0 15 8 ESE 3,8
15.10.2017 03:00:00 11,0 6,0 11 6 S 10
15.10.2017 02:00:00 11,0 6,0 22 12 S 10
15.10.2017 01:00:00 11,0 9,0 18 10 SSW 10
15.10.2017 00:00:00 12,0 9,0 26 14 SSW 7
14.10.2017 23:00:00 12,0 10,0 24 13 SW 6
14.10.2017 22:00:00 11,0 9,0 29 16 SW 8
14.10.2017 21:00:00 11,0 9,0 31 17 WSW 6
14.10.2017 20:00:00 12,0 9,0 37 20 SW 10
14.10.2017 19:00:00 12,0 9,0 41 22 WSW 10
14.10.2017 18:00:00 12,0 9,0 44 24 WSW 8
14.10.2017 17:00:00 12,0 8,0 48 26 WSW 10
14.10.2017 16:00:00 12,0 9,0 46 25 SW 7
14.10.2017 15:00:00 12,0 8,0 50 27 SW 9
14.10.2017 14:00:00 12,0 9,0 46 25 SW 9
14.10.2017 13:00:00 12,0 9,0 48 26 SW 10
14.10.2017 12:00:00 11,0 9,0 44 24 SW 10
14.10.2017 11:00:00 11,0 9,0 50 27 SW 10
14.10.2017 10:00:00 12,0 9,0 48 26 SW 8
14.10.2017 09:00:00 12,0 9,0 46 25 SW 10
14.10.2017 08:00:00 11,0 8,0 52 28 SW 9
14.10.2017 07:00:00 12,0 8,0 46 25 SW 9
14.10.2017 06:00:00 12,0 8,0 55 30 SW 9
14.10.2017 05:00:00 12,0 8,0 48 26 SW 7
14.10.2017 04:00:00 11,0 9,0 35 19 SW 5
14.10.2017 03:00:00 11,0 9,0 46 25 SW 6
14.10.2017 02:00:00 12,0 9,0 52 28 SW 5
14.10.2017 01:00:00 12,0 9,0 41 22 SW 6
14.10.2017 00:00:00 11,0 9,0 48 26 SW 1,9
13.10.2017 23:00:00 12,0 8,0 44 24 SW 8
13.10.2017 22:00:00 13,0 8,0 44 24 SW 9
13.10.2017 21:00:00 13,0 9,0 52 28 SW 8
13.10.2017 20:00:00 13,0 9,0 44 24 SW 8
13.10.2017 19:00:00 13,0 9,0 48 26 SW 9
13.10.2017 18:00:00 13,0 9,0 42 23 SW 9
13.10.2017 17:00:00 13,0 9,0 42 23 SW 10
13.10.2017 16:00:00 14,0 9,0 50 27 SW 10
13.10.2017 15:00:00 14,0 10,0 54 29 SW 10
13.10.2017 14:00:00 14,0 11,0 42 23 SW 10
13.10.2017 13:00:00 13,0 10,0 29 16 SW 10
13.10.2017 12:00:00 13,0 11,0 34 18 SW 10
13.10.2017 11:00:00 14,0 13,0 39 21 SW 3,0
13.10.2017 10:00:00 14,0 13,0 35 19 S 10
13.10.2017 09:00:00 13,0 12,0 29 16 S 8
13.10.2017 08:00:00 13,0 12,0 29 16 S 8
13.10.2017 07:00:00 13,0 12,0 39 21 S 8
13.10.2017 06:00:00 13,0 12,0 39 21 S 9
13.10.2017 05:00:00 13,0 11,0 41 22 S 5
13.10.2017 04:00:00 13,0 11,0 39 21 S 10
13.10.2017 03:00:00 12,0 10,0 41 22 S 10
13.10.2017 02:00:00 12,0 10,0 37 20 S 10
13.10.2017 01:00:00 12,0 10,0 35 19 S 10
13.10.2017 00:00:00 11,0 9,0 28 15 S 10
12.10.2017 23:00:00 12,0 10,0 31 17 S 10
12.10.2017 22:00:00 12,0 9,0 31 17 S 10
12.10.2017 21:00:00 12,0 9,0 26 14 S 10
12.10.2017 20:00:00 11,0 8,0 24 13 S 10
12.10.2017 19:00:00 11,0 8,0 22 12 S 10
12.10.2017 18:00:00 11,0 7,0 26 14 SW 10
12.10.2017 17:00:00 12,0 8,0 34 18 SW 10
12.10.2017 16:00:00 12,0 8,0 24 13 WSW 10
12.10.2017 15:00:00 12,0 6,0 31 17 WSW 10
12.10.2017 14:00:00 11,0 6,0 31 17 W 10
12.10.2017 13:00:00 12,0 6,0 35 19 W 10
12.10.2017 12:00:00 11,0 6,0 31 17 W 10
12.10.2017 11:00:00 11,0 6,0 34 18 W 10
12.10.2017 10:00:00 10,0 6,0 42 23 W 10
12.10.2017 09:00:00 10,0 5,0 42 23 W 10
12.10.2017 08:00:00 10,0 6,0 46 25 W 10
12.10.2017 07:00:00 9,0 7,0 50 27 W 10
12.10.2017 06:00:00 9,0 6,0 26 14 WSW 1,3
12.10.2017 05:00:00 9,0 7,0 44 24 WSW 10
12.10.2017 04:00:00 10,0 7,0 35 19 WSW 10
12.10.2017 03:00:00 11,0 7,0 44 24 WSW 10
12.10.2017 02:00:00 11,0 6,0 34 18 WSW 10
12.10.2017 01:00:00 10,0 7,0 34 18 SW 10
12.10.2017 00:00:00 11,0 7,0 29 16 WSW 10
11.10.2017 23:00:00 10,0 6,0 24 13 WSW 10
11.10.2017 22:00:00 11,0 6,0 24 13 WSW 10
11.10.2017 21:00:00 10,0 7,0 22 12 WSW 10
11.10.2017 20:00:00 11,0 6,0 26 14 WSW 10
11.10.2017 19:00:00 11,0 6,0 22 12 WSW 10

tt = Température de l'air
td = dewpoint
ff = Vitesse du vent
dd = Direction du vent
vv = visibility

stations d'obs. à proximité